sensor_id;sensor_type;location;lat;lon;timestamp;temperature;humidity
17442;DHT22;8838;50.144;8.176;2022-10-16T00:00:36;13.20;99.90
17442;DHT22;8838;50.144;8.176;2022-10-16T00:03:03;13.30;99.90
17442;DHT22;8838;50.144;8.176;2022-10-16T00:05:30;13.30;99.90
17442;DHT22;8838;50.144;8.176;2022-10-16T00:07:57;13.30;99.90
17442;DHT22;8838;50.144;8.176;2022-10-16T00:10:25;13.40;99.90
17442;DHT22;8838;50.144;8.176;2022-10-16T00:12:52;13.30;99.90
17442;DHT22;8838;50.144;8.176;2022-10-16T00:15:19;13.30;99.90
17442;DHT22;8838;50.144;8.176;2022-10-16T00:17:46;13.20;99.90
17442;DHT22;8838;50.144;8.176;2022-10-16T00:20:13;13.20;99.90
17442;DHT22;8838;50.144;8.176;2022-10-16T00:22:39;13.20;99.90
17442;DHT22;8838;50.144;8.176;2022-10-16T00:25:07;13.30;99.90
17442;DHT22;8838;50.144;8.176;2022-10-16T00:27:36;13.20;99.90
17442;DHT22;8838;50.144;8.176;2022-10-16T00:30:04;13.20;99.90
17442;DHT22;8838;50.144;8.176;2022-10-16T00:32:34;13.20;99.90
17442;DHT22;8838;50.144;8.176;2022-10-16T00:35:01;13.40;99.90
17442;DHT22;8838;50.144;8.176;2022-10-16T00:37:29;13.30;99.90
17442;DHT22;8838;50.144;8.176;2022-10-16T00:39:56;13.40;99.90
17442;DHT22;8838;50.144;8.176;2022-10-16T00:42:23;13.40;99.90
17442;DHT22;8838;50.144;8.176;2022-10-16T00:44:53;13.40;99.90
17442;DHT22;8838;50.144;8.176;2022-10-16T00:47:25;13.40;99.90
17442;DHT22;8838;50.144;8.176;2022-10-16T00:49:57;13.40;99.90
17442;DHT22;8838;50.144;8.176;2022-10-16T00:52:25;13.40;99.90
17442;DHT22;8838;50.144;8.176;2022-10-16T00:54:52;13.40;99.90
17442;DHT22;8838;50.144;8.176;2022-10-16T00:57:20;13.40;99.90
17442;DHT22;8838;50.144;8.176;2022-10-16T00:59:47;13.50;99.90
17442;DHT22;8838;50.144;8.176;2022-10-16T01:02:16;13.40;99.90
17442;DHT22;8838;50.144;8.176;2022-10-16T01:04:44;13.50;99.90
17442;DHT22;8838;50.144;8.176;2022-10-16T01:07:17;13.50;99.90
17442;DHT22;8838;50.144;8.176;2022-10-16T01:09:57;13.60;99.90
17442;DHT22;8838;50.144;8.176;2022-10-16T01:12:35;13.60;99.90
17442;DHT22;8838;50.144;8.176;2022-10-16T01:15:10;13.60;99.90
17442;DHT22;8838;50.144;8.176;2022-10-16T01:17:44;13.60;99.90
17442;DHT22;8838;50.144;8.176;2022-10-16T01:20:20;13.60;99.90
17442;DHT22;8838;50.144;8.176;2022-10-16T01:23:03;13.60;99.90
17442;DHT22;8838;50.144;8.176;2022-10-16T01:25:45;13.60;99.90
17442;DHT22;8838;50.144;8.176;2022-10-16T01:28:18;13.70;99.90
17442;DHT22;8838;50.144;8.176;2022-10-16T01:30:50;13.60;99.90
17442;DHT22;8838;50.144;8.176;2022-10-16T01:33:21;13.60;99.90
17442;DHT22;8838;50.144;8.176;2022-10-16T01:35:53;13.60;99.90
17442;DHT22;8838;50.144;8.176;2022-10-16T01:38:25;13.60;99.90
17442;DHT22;8838;50.144;8.176;2022-10-16T01:40:58;13.60;99.90
17442;DHT22;8838;50.144;8.176;2022-10-16T01:43:31;13.60;99.90
17442;DHT22;8838;50.144;8.176;2022-10-16T01:46:00;13.70;99.90
17442;DHT22;8838;50.144;8.176;2022-10-16T01:48:28;13.70;99.90
17442;DHT22;8838;50.144;8.176;2022-10-16T01:50:59;13.60;99.90
17442;DHT22;8838;50.144;8.176;2022-10-16T01:53:27;13.60;99.90
17442;DHT22;8838;50.144;8.176;2022-10-16T01:55:55;13.60;99.90
17442;DHT22;8838;50.144;8.176;2022-10-16T01:58:25;13.60;99.90
17442;DHT22;8838;50.144;8.176;2022-10-16T02:00:57;13.60;99.90
17442;DHT22;8838;50.144;8.176;2022-10-16T02:03:24;13.60;99.90
17442;DHT22;8838;50.144;8.176;2022-10-16T02:05:53;13.70;99.90
17442;DHT22;8838;50.144;8.176;2022-10-16T02:08:22;13.80;99.90
17442;DHT22;8838;50.144;8.176;2022-10-16T02:10:51;13.80;99.90
17442;DHT22;8838;50.144;8.176;2022-10-16T02:13:23;13.80;99.90
17442;DHT22;8838;50.144;8.176;2022-10-16T02:15:50;13.80;99.90
17442;DHT22;8838;50.144;8.176;2022-10-16T02:18:18;13.80;99.90
17442;DHT22;8838;50.144;8.176;2022-10-16T02:20:51;13.80;99.90
17442;DHT22;8838;50.144;8.176;2022-10-16T02:23:23;13.80;99.90
17442;DHT22;8838;50.144;8.176;2022-10-16T02:25:52;13.80;99.90
17442;DHT22;8838;50.144;8.176;2022-10-16T02:28:24;13.80;99.90
17442;DHT22;8838;50.144;8.176;2022-10-16T02:30:57;13.80;99.90
17442;DHT22;8838;50.144;8.176;2022-10-16T02:33:27;13.80;99.90
17442;DHT22;8838;50.144;8.176;2022-10-16T02:35:55;13.80;99.90
17442;DHT22;8838;50.144;8.176;2022-10-16T02:38:23;13.80;99.90
17442;DHT22;8838;50.144;8.176;2022-10-16T02:40:51;13.70;99.90
17442;DHT22;8838;50.144;8.176;2022-10-16T02:43:18;13.70;99.90
17442;DHT22;8838;50.144;8.176;2022-10-16T02:45:45;13.80;99.90
17442;DHT22;8838;50.144;8.176;2022-10-16T02:48:12;13.80;99.90
17442;DHT22;8838;50.144;8.176;2022-10-16T02:50:41;13.70;99.90
17442;DHT22;8838;50.144;8.176;2022-10-16T02:53:08;13.70;99.90
17442;DHT22;8838;50.144;8.176;2022-10-16T02:55:35;13.70;99.90
17442;DHT22;8838;50.144;8.176;2022-10-16T02:58:01;13.70;99.90
17442;DHT22;8838;50.144;8.176;2022-10-16T03:00:28;13.70;99.90
17442;DHT22;8838;50.144;8.176;2022-10-16T03:02:55;13.80;99.90
17442;DHT22;8838;50.144;8.176;2022-10-16T03:05:22;13.70;99.90
17442;DHT22;8838;50.144;8.176;2022-10-16T03:07:50;13.70;99.90
17442;DHT22;8838;50.144;8.176;2022-10-16T03:10:18;13.60;99.90
17442;DHT22;8838;50.144;8.176;2022-10-16T03:12:45;13.60;99.90
17442;DHT22;8838;50.144;8.176;2022-10-16T03:15:12;13.50;99.90
17442;DHT22;8838;50.144;8.176;2022-10-16T03:17:38;13.50;99.90
17442;DHT22;8838;50.144;8.176;2022-10-16T03:20:06;13.50;99.90
17442;DHT22;8838;50.144;8.176;2022-10-16T03:22:33;13.50;99.90
17442;DHT22;8838;50.144;8.176;2022-10-16T03:25:01;13.50;99.90
17442;DHT22;8838;50.144;8.176;2022-10-16T03:27:28;13.50;99.90
17442;DHT22;8838;50.144;8.176;2022-10-16T03:29:55;13.40;99.90
17442;DHT22;8838;50.144;8.176;2022-10-16T03:32:22;13.50;99.90
17442;DHT22;8838;50.144;8.176;2022-10-16T03:34:50;13.40;99.90
17442;DHT22;8838;50.144;8.176;2022-10-16T03:37:18;13.40;99.90
17442;DHT22;8838;50.144;8.176;2022-10-16T03:39:45;13.50;99.90
17442;DHT22;8838;50.144;8.176;2022-10-16T03:42:13;13.50;99.90
17442;DHT22;8838;50.144;8.176;2022-10-16T03:44:40;13.50;99.90
17442;DHT22;8838;50.144;8.176;2022-10-16T03:47:06;13.50;99.90
17442;DHT22;8838;50.144;8.176;2022-10-16T03:49:33;13.40;99.90
17442;DHT22;8838;50.144;8.176;2022-10-16T03:52:00;13.40;99.90
17442;DHT22;8838;50.144;8.176;2022-10-16T03:54:27;13.40;99.90
17442;DHT22;8838;50.144;8.176;2022-10-16T03:56:53;13.40;99.90
17442;DHT22;8838;50.144;8.176;2022-10-16T03:59:21;13.40;99.90
17442;DHT22;8838;50.144;8.176;2022-10-16T04:01:48;13.40;99.90
17442;DHT22;8838;50.144;8.176;2022-10-16T04:04:15;13.40;99.90
17442;DHT22;8838;50.144;8.176;2022-10-16T04:06:42;13.30;99.90
17442;DHT22;8838;50.144;8.176;2022-10-16T04:09:09;13.30;99.90
17442;DHT22;8838;50.144;8.176;2022-10-16T04:11:35;13.30;99.90
17442;DHT22;8838;50.144;8.176;2022-10-16T04:14:02;13.30;99.90
17442;DHT22;8838;50.144;8.176;2022-10-16T04:16:30;13.30;99.90
17442;DHT22;8838;50.144;8.176;2022-10-16T04:18:57;13.30;99.90
17442;DHT22;8838;50.144;8.176;2022-10-16T04:21:24;13.30;99.90
17442;DHT22;8838;50.144;8.176;2022-10-16T04:23:51;13.30;99.90
17442;DHT22;8838;50.144;8.176;2022-10-16T04:26:18;13.30;99.90
17442;DHT22;8838;50.144;8.176;2022-10-16T04:28:45;13.40;99.90
17442;DHT22;8838;50.144;8.176;2022-10-16T04:31:11;13.40;99.90
17442;DHT22;8838;50.144;8.176;2022-10-16T04:33:42;13.50;99.90
17442;DHT22;8838;50.144;8.176;2022-10-16T04:36:09;13.40;99.90
17442;DHT22;8838;50.144;8.176;2022-10-16T04:38:35;13.40;99.90
17442;DHT22;8838;50.144;8.176;2022-10-16T04:41:03;13.40;99.90
17442;DHT22;8838;50.144;8.176;2022-10-16T04:43:29;13.40;99.90
17442;DHT22;8838;50.144;8.176;2022-10-16T04:45:56;13.40;99.90
17442;DHT22;8838;50.144;8.176;2022-10-16T04:48:23;13.40;99.90
17442;DHT22;8838;50.144;8.176;2022-10-16T04:50:51;13.40;99.90
17442;DHT22;8838;50.144;8.176;2022-10-16T04:53:18;13.40;99.90
17442;DHT22;8838;50.144;8.176;2022-10-16T04:55:45;13.40;99.90
17442;DHT22;8838;50.144;8.176;2022-10-16T04:58:12;13.50;99.90
17442;DHT22;8838;50.144;8.176;2022-10-16T05:00:38;13.50;99.90
17442;DHT22;8838;50.144;8.176;2022-10-16T05:03:05;13.50;99.90
17442;DHT22;8838;50.144;8.176;2022-10-16T05:05:34;13.50;99.90
17442;DHT22;8838;50.144;8.176;2022-10-16T05:08:02;13.50;99.90
17442;DHT22;8838;50.144;8.176;2022-10-16T05:10:29;13.50;99.90
17442;DHT22;8838;50.144;8.176;2022-10-16T05:12:56;13.50;99.90
17442;DHT22;8838;50.144;8.176;2022-10-16T05:15:23;13.40;99.90
17442;DHT22;8838;50.144;8.176;2022-10-16T05:17:53;13.40;99.90
17442;DHT22;8838;50.144;8.176;2022-10-16T05:20:20;13.40;99.90
17442;DHT22;8838;50.144;8.176;2022-10-16T05:22:46;13.40;99.90
17442;DHT22;8838;50.144;8.176;2022-10-16T05:25:15;13.40;99.90
17442;DHT22;8838;50.144;8.176;2022-10-16T05:27:42;13.40;99.90
17442;DHT22;8838;50.144;8.176;2022-10-16T05:30:09;13.50;99.90
17442;DHT22;8838;50.144;8.176;2022-10-16T05:32:36;13.50;99.90
17442;DHT22;8838;50.144;8.176;2022-10-16T05:35:03;13.50;99.90
17442;DHT22;8838;50.144;8.176;2022-10-16T05:37:31;13.50;99.90
17442;DHT22;8838;50.144;8.176;2022-10-16T05:39:58;13.50;99.90
17442;DHT22;8838;50.144;8.176;2022-10-16T05:42:26;13.60;99.90
17442;DHT22;8838;50.144;8.176;2022-10-16T05:44:53;13.60;99.90
17442;DHT22;8838;50.144;8.176;2022-10-16T05:47:23;13.60;99.90
17442;DHT22;8838;50.144;8.176;2022-10-16T05:49:50;13.60;99.90
17442;DHT22;8838;50.144;8.176;2022-10-16T05:52:16;13.60;99.90
17442;DHT22;8838;50.144;8.176;2022-10-16T05:54:43;13.60;99.90
17442;DHT22;8838;50.144;8.176;2022-10-16T05:57:10;13.60;99.90
17442;DHT22;8838;50.144;8.176;2022-10-16T05:59:38;13.60;99.90
17442;DHT22;8838;50.144;8.176;2022-10-16T06:02:05;13.70;99.90
17442;DHT22;8838;50.144;8.176;2022-10-16T06:04:32;13.60;99.90
17442;DHT22;8838;50.144;8.176;2022-10-16T06:06:59;13.60;99.90
17442;DHT22;8838;50.144;8.176;2022-10-16T06:09:26;13.60;99.90
17442;DHT22;8838;50.144;8.176;2022-10-16T06:11:53;13.60;99.90
17442;DHT22;8838;50.144;8.176;2022-10-16T06:14:20;13.60;99.90
17442;DHT22;8838;50.144;8.176;2022-10-16T06:16:48;13.70;99.90
17442;DHT22;8838;50.144;8.176;2022-10-16T06:19:15;13.70;99.90
17442;DHT22;8838;50.144;8.176;2022-10-16T06:21:43;13.60;99.90
17442;DHT22;8838;50.144;8.176;2022-10-16T06:24:10;13.60;99.90
17442;DHT22;8838;50.144;8.176;2022-10-16T06:26:37;13.70;99.90
17442;DHT22;8838;50.144;8.176;2022-10-16T06:29:04;13.70;99.90
17442;DHT22;8838;50.144;8.176;2022-10-16T06:31:33;13.70;99.90
17442;DHT22;8838;50.144;8.176;2022-10-16T06:34:01;13.70;99.90
17442;DHT22;8838;50.144;8.176;2022-10-16T06:36:30;13.70;99.90
17442;DHT22;8838;50.144;8.176;2022-10-16T06:38:58;13.70;99.90
17442;DHT22;8838;50.144;8.176;2022-10-16T06:41:25;13.80;99.90
17442;DHT22;8838;50.144;8.176;2022-10-16T06:43:52;13.80;99.90
17442;DHT22;8838;50.144;8.176;2022-10-16T06:46:21;13.80;99.90
17442;DHT22;8838;50.144;8.176;2022-10-16T06:48:48;13.80;99.90
17442;DHT22;8838;50.144;8.176;2022-10-16T06:51:17;13.90;99.90
17442;DHT22;8838;50.144;8.176;2022-10-16T06:53:45;13.90;99.90
17442;DHT22;8838;50.144;8.176;2022-10-16T06:56:15;13.80;99.90
17442;DHT22;8838;50.144;8.176;2022-10-16T06:58:43;13.90;99.90
17442;DHT22;8838;50.144;8.176;2022-10-16T07:01:11;13.90;99.90
17442;DHT22;8838;50.144;8.176;2022-10-16T07:03:40;13.90;99.90
17442;DHT22;8838;50.144;8.176;2022-10-16T07:06:08;13.90;99.90
17442;DHT22;8838;50.144;8.176;2022-10-16T07:08:38;13.90;99.90
17442;DHT22;8838;50.144;8.176;2022-10-16T07:11:06;13.90;99.90
17442;DHT22;8838;50.144;8.176;2022-10-16T07:13:34;13.90;99.90
17442;DHT22;8838;50.144;8.176;2022-10-16T07:16:04;14.00;99.90
17442;DHT22;8838;50.144;8.176;2022-10-16T07:18:31;14.00;99.90
17442;DHT22;8838;50.144;8.176;2022-10-16T07:21:04;14.00;99.90
17442;DHT22;8838;50.144;8.176;2022-10-16T07:23:31;14.00;99.90
17442;DHT22;8838;50.144;8.176;2022-10-16T07:25:59;14.00;99.90
17442;DHT22;8838;50.144;8.176;2022-10-16T07:28:26;14.00;99.90
17442;DHT22;8838;50.144;8.176;2022-10-16T07:30:53;14.00;99.90
17442;DHT22;8838;50.144;8.176;2022-10-16T07:33:20;14.10;99.90
17442;DHT22;8838;50.144;8.176;2022-10-16T07:35:51;14.10;99.90
17442;DHT22;8838;50.144;8.176;2022-10-16T07:38:18;14.10;99.90
17442;DHT22;8838;50.144;8.176;2022-10-16T07:40:45;14.10;99.90
17442;DHT22;8838;50.144;8.176;2022-10-16T07:43:14;14.20;99.90
17442;DHT22;8838;50.144;8.176;2022-10-16T07:45:48;14.10;99.90
17442;DHT22;8838;50.144;8.176;2022-10-16T07:48:15;14.10;99.90
17442;DHT22;8838;50.144;8.176;2022-10-16T07:50:43;14.10;99.90
17442;DHT22;8838;50.144;8.176;2022-10-16T07:53:11;14.20;99.90
17442;DHT22;8838;50.144;8.176;2022-10-16T07:55:38;14.20;99.90
17442;DHT22;8838;50.144;8.176;2022-10-16T07:58:05;14.20;99.90
17442;DHT22;8838;50.144;8.176;2022-10-16T08:00:35;14.20;99.90
17442;DHT22;8838;50.144;8.176;2022-10-16T08:03:02;14.20;99.90
17442;DHT22;8838;50.144;8.176;2022-10-16T08:05:30;14.20;99.90
17442;DHT22;8838;50.144;8.176;2022-10-16T08:07:57;14.20;99.90
17442;DHT22;8838;50.144;8.176;2022-10-16T08:10:26;14.20;99.90
17442;DHT22;8838;50.144;8.176;2022-10-16T08:12:53;14.30;99.90
17442;DHT22;8838;50.144;8.176;2022-10-16T08:15:21;14.30;99.90
17442;DHT22;8838;50.144;8.176;2022-10-16T08:17:56;14.30;99.90
17442;DHT22;8838;50.144;8.176;2022-10-16T08:20:23;14.30;99.90
17442;DHT22;8838;50.144;8.176;2022-10-16T08:22:50;14.30;99.90
17442;DHT22;8838;50.144;8.176;2022-10-16T08:25:16;14.30;99.90
17442;DHT22;8838;50.144;8.176;2022-10-16T08:27:43;14.40;99.90
17442;DHT22;8838;50.144;8.176;2022-10-16T08:30:11;14.40;99.90
17442;DHT22;8838;50.144;8.176;2022-10-16T08:32:38;14.50;99.90
17442;DHT22;8838;50.144;8.176;2022-10-16T08:35:08;14.50;99.90
17442;DHT22;8838;50.144;8.176;2022-10-16T08:37:36;14.60;99.90
17442;DHT22;8838;50.144;8.176;2022-10-16T08:40:04;14.60;99.90
17442;DHT22;8838;50.144;8.176;2022-10-16T08:42:42;14.60;99.90
17442;DHT22;8838;50.144;8.176;2022-10-16T08:45:32;14.60;99.90
17442;DHT22;8838;50.144;8.176;2022-10-16T08:48:09;14.60;99.90
17442;DHT22;8838;50.144;8.176;2022-10-16T08:50:42;14.60;99.90
17442;DHT22;8838;50.144;8.176;2022-10-16T08:53:15;14.70;99.90
17442;DHT22;8838;50.144;8.176;2022-10-16T08:55:46;14.70;99.90
17442;DHT22;8838;50.144;8.176;2022-10-16T08:58:16;14.80;99.90
17442;DHT22;8838;50.144;8.176;2022-10-16T09:00:47;14.80;99.90
17442;DHT22;8838;50.144;8.176;2022-10-16T09:03:23;14.80;99.90
17442;DHT22;8838;50.144;8.176;2022-10-16T09:06:05;14.90;99.90
17442;DHT22;8838;50.144;8.176;2022-10-16T09:08:42;14.90;99.90
17442;DHT22;8838;50.144;8.176;2022-10-16T09:11:17;14.90;99.90
17442;DHT22;8838;50.144;8.176;2022-10-16T09:13:50;14.90;99.90
17442;DHT22;8838;50.144;8.176;2022-10-16T09:16:20;14.90;99.90
17442;DHT22;8838;50.144;8.176;2022-10-16T09:18:54;14.80;99.90
17442;DHT22;8838;50.144;8.176;2022-10-16T09:21:25;14.80;99.90
17442;DHT22;8838;50.144;8.176;2022-10-16T09:23:54;14.90;99.90
17442;DHT22;8838;50.144;8.176;2022-10-16T09:26:23;14.90;99.90
17442;DHT22;8838;50.144;8.176;2022-10-16T09:28:52;15.00;99.90
17442;DHT22;8838;50.144;8.176;2022-10-16T09:31:21;15.00;99.90
17442;DHT22;8838;50.144;8.176;2022-10-16T09:33:52;15.00;99.90
17442;DHT22;8838;50.144;8.176;2022-10-16T09:36:22;15.00;99.90
17442;DHT22;8838;50.144;8.176;2022-10-16T09:38:49;15.10;99.90
17442;DHT22;8838;50.144;8.176;2022-10-16T09:41:20;15.10;99.90
17442;DHT22;8838;50.144;8.176;2022-10-16T09:43:54;15.10;99.90
17442;DHT22;8838;50.144;8.176;2022-10-16T09:46:27;15.20;99.90
17442;DHT22;8838;50.144;8.176;2022-10-16T09:48:57;15.30;99.90
17442;DHT22;8838;50.144;8.176;2022-10-16T09:51:27;15.40;99.90
17442;DHT22;8838;50.144;8.176;2022-10-16T09:53:57;15.60;99.90
17442;DHT22;8838;50.144;8.176;2022-10-16T09:56:26;15.70;99.90
17442;DHT22;8838;50.144;8.176;2022-10-16T09:58:55;15.90;99.90
17442;DHT22;8838;50.144;8.176;2022-10-16T10:01:26;15.90;99.90
17442;DHT22;8838;50.144;8.176;2022-10-16T10:03:56;16.00;99.90
17442;DHT22;8838;50.144;8.176;2022-10-16T10:06:30;16.10;99.90
17442;DHT22;8838;50.144;8.176;2022-10-16T10:09:00;16.10;99.90
17442;DHT22;8838;50.144;8.176;2022-10-16T10:11:38;16.30;99.90
17442;DHT22;8838;50.144;8.176;2022-10-16T10:14:05;16.50;99.90
17442;DHT22;8838;50.144;8.176;2022-10-16T10:16:32;16.60;99.90
17442;DHT22;8838;50.144;8.176;2022-10-16T10:19:00;16.80;99.90
17442;DHT22;8838;50.144;8.176;2022-10-16T10:21:28;17.00;99.90
17442;DHT22;8838;50.144;8.176;2022-10-16T10:23:55;17.10;99.90
17442;DHT22;8838;50.144;8.176;2022-10-16T10:26:26;17.20;99.90
17442;DHT22;8838;50.144;8.176;2022-10-16T10:29:01;17.20;99.90
17442;DHT22;8838;50.144;8.176;2022-10-16T10:31:34;17.10;99.90
17442;DHT22;8838;50.144;8.176;2022-10-16T10:34:26;17.00;99.90
17442;DHT22;8838;50.144;8.176;2022-10-16T10:37:00;17.00;99.90
17442;DHT22;8838;50.144;8.176;2022-10-16T10:39:34;17.00;99.90
17442;DHT22;8838;50.144;8.176;2022-10-16T10:42:19;16.90;99.90
17442;DHT22;8838;50.144;8.176;2022-10-16T10:45:13;17.00;99.90
17442;DHT22;8838;50.144;8.176;2022-10-16T10:47:48;17.00;99.90
17442;DHT22;8838;50.144;8.176;2022-10-16T10:50:23;17.00;99.90
17442;DHT22;8838;50.144;8.176;2022-10-16T10:52:59;17.10;99.90
17442;DHT22;8838;50.144;8.176;2022-10-16T10:55:39;17.20;99.90
17442;DHT22;8838;50.144;8.176;2022-10-16T10:58:42;17.20;99.90
17442;DHT22;8838;50.144;8.176;2022-10-16T11:01:12;17.30;99.90
17442;DHT22;8838;50.144;8.176;2022-10-16T11:03:56;17.30;99.90
17442;DHT22;8838;50.144;8.176;2022-10-16T11:06:39;17.30;99.90
17442;DHT22;8838;50.144;8.176;2022-10-16T11:09:12;17.30;99.90
17442;DHT22;8838;50.144;8.176;2022-10-16T11:11:43;17.30;99.90
17442;DHT22;8838;50.144;8.176;2022-10-16T11:14:17;17.40;99.90
17442;DHT22;8838;50.144;8.176;2022-10-16T11:16:49;17.60;99.90
17442;DHT22;8838;50.144;8.176;2022-10-16T11:19:25;17.60;99.90
17442;DHT22;8838;50.144;8.176;2022-10-16T11:21:59;17.60;99.90
17442;DHT22;8838;50.144;8.176;2022-10-16T11:24:35;17.50;99.90
17442;DHT22;8838;50.144;8.176;2022-10-16T11:27:08;17.30;99.90
17442;DHT22;8838;50.144;8.176;2022-10-16T11:29:35;17.30;99.90
17442;DHT22;8838;50.144;8.176;2022-10-16T11:32:14;17.20;99.90
17442;DHT22;8838;50.144;8.176;2022-10-16T11:34:51;17.10;99.90
17442;DHT22;8838;50.144;8.176;2022-10-16T11:37:23;16.90;99.90
17442;DHT22;8838;50.144;8.176;2022-10-16T11:40:05;16.70;99.90
17442;DHT22;8838;50.144;8.176;2022-10-16T11:42:46;16.60;99.90
17442;DHT22;8838;50.144;8.176;2022-10-16T11:45:23;16.50;99.90
17442;DHT22;8838;50.144;8.176;2022-10-16T11:47:59;16.50;99.90
17442;DHT22;8838;50.144;8.176;2022-10-16T11:50:35;16.50;99.90
17442;DHT22;8838;50.144;8.176;2022-10-16T11:53:11;16.50;99.90
17442;DHT22;8838;50.144;8.176;2022-10-16T11:55:43;16.80;99.90
17442;DHT22;8838;50.144;8.176;2022-10-16T11:58:19;17.10;99.90
17442;DHT22;8838;50.144;8.176;2022-10-16T12:00:56;17.20;99.90
17442;DHT22;8838;50.144;8.176;2022-10-16T12:03:30;17.30;99.90
17442;DHT22;8838;50.144;8.176;2022-10-16T12:06:17;17.50;99.90
17442;DHT22;8838;50.144;8.176;2022-10-16T12:08:49;17.50;99.90
17442;DHT22;8838;50.144;8.176;2022-10-16T12:11:32;17.60;99.90
17442;DHT22;8838;50.144;8.176;2022-10-16T12:14:18;17.40;99.90
17442;DHT22;8838;50.144;8.176;2022-10-16T12:16:56;17.30;99.90
17442;DHT22;8838;50.144;8.176;2022-10-16T12:19:25;17.40;99.90
17442;DHT22;8838;50.144;8.176;2022-10-16T12:21:57;17.40;99.90
17442;DHT22;8838;50.144;8.176;2022-10-16T12:24:33;17.40;99.90
17442;DHT22;8838;50.144;8.176;2022-10-16T12:27:05;17.60;99.90
17442;DHT22;8838;50.144;8.176;2022-10-16T12:29:36;17.60;99.90
17442;DHT22;8838;50.144;8.176;2022-10-16T12:32:04;17.60;99.90
17442;DHT22;8838;50.144;8.176;2022-10-16T12:34:38;17.70;99.90
17442;DHT22;8838;50.144;8.176;2022-10-16T12:37:18;17.90;99.90
17442;DHT22;8838;50.144;8.176;2022-10-16T12:39:47;18.00;99.90
17442;DHT22;8838;50.144;8.176;2022-10-16T12:42:33;18.00;99.90
17442;DHT22;8838;50.144;8.176;2022-10-16T12:45:00;18.30;99.90
17442;DHT22;8838;50.144;8.176;2022-10-16T12:47:47;18.50;99.90
17442;DHT22;8838;50.144;8.176;2022-10-16T12:50:27;18.60;99.90
17442;DHT22;8838;50.144;8.176;2022-10-16T12:52:54;18.70;99.90
17442;DHT22;8838;50.144;8.176;2022-10-16T12:55:22;18.70;99.90
17442;DHT22;8838;50.144;8.176;2022-10-16T12:58:02;18.80;99.90
17442;DHT22;8838;50.144;8.176;2022-10-16T13:00:37;18.80;99.90
17442;DHT22;8838;50.144;8.176;2022-10-16T13:03:42;18.90;99.90
17442;DHT22;8838;50.144;8.176;2022-10-16T13:06:20;18.90;99.90
17442;DHT22;8838;50.144;8.176;2022-10-16T13:09:15;18.90;99.90
17442;DHT22;8838;50.144;8.176;2022-10-16T13:11:59;18.90;99.90
17442;DHT22;8838;50.144;8.176;2022-10-16T13:14:56;18.70;99.90
17442;DHT22;8838;50.144;8.176;2022-10-16T13:17:30;18.40;99.90
17442;DHT22;8838;50.144;8.176;2022-10-16T13:20:10;18.30;99.90
17442;DHT22;8838;50.144;8.176;2022-10-16T13:22:50;18.30;99.90
17442;DHT22;8838;50.144;8.176;2022-10-16T13:25:23;18.50;99.90
17442;DHT22;8838;50.144;8.176;2022-10-16T13:27:55;18.40;99.90
17442;DHT22;8838;50.144;8.176;2022-10-16T13:30:25;18.40;99.90
17442;DHT22;8838;50.144;8.176;2022-10-16T13:32:58;18.30;99.90
17442;DHT22;8838;50.144;8.176;2022-10-16T13:35:27;18.30;99.90
17442;DHT22;8838;50.144;8.176;2022-10-16T13:38:11;18.30;99.90
17442;DHT22;8838;50.144;8.176;2022-10-16T13:40:49;18.30;99.90
17442;DHT22;8838;50.144;8.176;2022-10-16T13:43:18;18.30;99.90
17442;DHT22;8838;50.144;8.176;2022-10-16T13:45:55;18.20;99.90
17442;DHT22;8838;50.144;8.176;2022-10-16T13:48:22;18.30;99.90
17442;DHT22;8838;50.144;8.176;2022-10-16T13:50:59;18.30;99.90
17442;DHT22;8838;50.144;8.176;2022-10-16T13:53:26;18.10;99.90
17442;DHT22;8838;50.144;8.176;2022-10-16T13:55:54;18.10;99.90
17442;DHT22;8838;50.144;8.176;2022-10-16T13:58:21;18.00;99.90
17442;DHT22;8838;50.144;8.176;2022-10-16T14:00:58;18.10;99.90
17442;DHT22;8838;50.144;8.176;2022-10-16T14:03:25;18.10;99.90
17442;DHT22;8838;50.144;8.176;2022-10-16T14:05:55;18.10;99.90
17442;DHT22;8838;50.144;8.176;2022-10-16T14:08:24;18.10;99.90
17442;DHT22;8838;50.144;8.176;2022-10-16T14:10:53;18.10;99.90
17442;DHT22;8838;50.144;8.176;2022-10-16T14:13:29;18.10;99.90
17442;DHT22;8838;50.144;8.176;2022-10-16T14:16:00;18.20;99.90
17442;DHT22;8838;50.144;8.176;2022-10-16T14:18:29;18.40;99.90
17442;DHT22;8838;50.144;8.176;2022-10-16T14:21:03;18.50;99.90
17442;DHT22;8838;50.144;8.176;2022-10-16T14:23:32;18.60;99.90
17442;DHT22;8838;50.144;8.176;2022-10-16T14:26:16;18.50;99.90
17442;DHT22;8838;50.144;8.176;2022-10-16T14:28:44;18.40;99.90
17442;DHT22;8838;50.144;8.176;2022-10-16T14:31:31;18.30;99.90
17442;DHT22;8838;50.144;8.176;2022-10-16T14:33:59;18.40;99.90
17442;DHT22;8838;50.144;8.176;2022-10-16T14:36:27;18.40;99.90
17442;DHT22;8838;50.144;8.176;2022-10-16T14:38:59;18.50;99.90
17442;DHT22;8838;50.144;8.176;2022-10-16T14:41:28;18.90;99.90
17442;DHT22;8838;50.144;8.176;2022-10-16T14:44:02;19.30;99.90
17442;DHT22;8838;50.144;8.176;2022-10-16T14:46:33;19.50;99.90
17442;DHT22;8838;50.144;8.176;2022-10-16T14:49:04;19.60;99.90
17442;DHT22;8838;50.144;8.176;2022-10-16T14:51:39;19.50;99.90
17442;DHT22;8838;50.144;8.176;2022-10-16T14:54:07;19.20;99.90
17442;DHT22;8838;50.144;8.176;2022-10-16T14:56:43;19.00;99.90
17442;DHT22;8838;50.144;8.176;2022-10-16T14:59:14;18.80;99.90
17442;DHT22;8838;50.144;8.176;2022-10-16T15:01:44;18.50;99.90
17442;DHT22;8838;50.144;8.176;2022-10-16T15:04:12;18.40;99.90
17442;DHT22;8838;50.144;8.176;2022-10-16T15:06:40;18.20;99.90
17442;DHT22;8838;50.144;8.176;2022-10-16T15:09:07;18.10;99.90
17442;DHT22;8838;50.144;8.176;2022-10-16T15:11:39;18.00;99.90
17442;DHT22;8838;50.144;8.176;2022-10-16T15:14:13;18.00;99.90
17442;DHT22;8838;50.144;8.176;2022-10-16T15:16:50;17.90;99.90
17442;DHT22;8838;50.144;8.176;2022-10-16T15:19:18;17.90;99.90
17442;DHT22;8838;50.144;8.176;2022-10-16T15:21:45;17.90;99.90
17442;DHT22;8838;50.144;8.176;2022-10-16T15:24:13;17.90;99.90
17442;DHT22;8838;50.144;8.176;2022-10-16T15:26:41;17.90;99.90
17442;DHT22;8838;50.144;8.176;2022-10-16T15:29:08;17.80;99.90
17442;DHT22;8838;50.144;8.176;2022-10-16T15:31:35;17.80;99.90
17442;DHT22;8838;50.144;8.176;2022-10-16T15:34:05;17.80;99.90
17442;DHT22;8838;50.144;8.176;2022-10-16T15:36:34;17.90;99.90
17442;DHT22;8838;50.144;8.176;2022-10-16T15:39:02;17.90;99.90
17442;DHT22;8838;50.144;8.176;2022-10-16T15:41:29;17.80;99.90
17442;DHT22;8838;50.144;8.176;2022-10-16T15:43:56;17.80;99.90
17442;DHT22;8838;50.144;8.176;2022-10-16T15:46:24;17.80;99.90
17442;DHT22;8838;50.144;8.176;2022-10-16T15:48:56;17.80;99.90
17442;DHT22;8838;50.144;8.176;2022-10-16T15:51:26;17.70;99.90
17442;DHT22;8838;50.144;8.176;2022-10-16T15:53:55;17.60;99.90
17442;DHT22;8838;50.144;8.176;2022-10-16T15:56:22;17.50;99.90
17442;DHT22;8838;50.144;8.176;2022-10-16T15:58:51;17.50;99.90
17442;DHT22;8838;50.144;8.176;2022-10-16T16:01:19;17.50;99.90
17442;DHT22;8838;50.144;8.176;2022-10-16T16:03:46;17.40;99.90
17442;DHT22;8838;50.144;8.176;2022-10-16T16:06:13;17.40;99.90